Time;durP1;ratioP1;P1;durP2;ratioP2;P2;SDS_P1;SDS_P2;PMS_P1;PMS_P2;Temp;Humidity;BMP_temperature;BMP_pressure;BME280_temperature;BME280_humidity;BME280_pressure;Samples;Min_cycle;Max_cycle;Signal;HPM_P1;HPM_P2
2022/11/06 00:01:23;;;;;;;;;;;11.30;99.90;;;;;;7345787;19;109790;-88
2022/11/06 00:03:50;;;;;;;;;;;11.20;99.90;;;;;;7352973;19;112887;-88
2022/11/06 00:09:05;;;;;;;;;;;11.20;99.90;;;;;;7348671;19;110834;-87
2022/11/06 00:11:32;;;;;;;;;;;11.30;99.90;;;;;;7345515;19;108397;-89
2022/11/06 00:13:59;;;;;;;;;;;11.30;99.90;;;;;;7350009;19;109228;-88
2022/11/06 00:16:26;;;;;;;;;;;11.20;99.90;;;;;;7345572;19;113530;-87
2022/11/06 00:18:54;;;;;;;;;;;11.20;99.90;;;;;;7345900;19;108761;-88
2022/11/06 00:21:22;;;;;;;;;;;11.20;99.90;;;;;;7346075;19;108630;-88
2022/11/06 00:23:50;;;;;;;;;;;11.20;99.90;;;;;;7346886;19;109504;-88
2022/11/06 00:26:18;;;;;;;;;;;11.20;99.90;;;;;;7351696;19;108859;-89
2022/11/06 00:28:45;;;;;;;;;;;11.20;99.90;;;;;;7346850;19;110563;-88
2022/11/06 00:31:13;;;;;;;;;;;11.20;99.90;;;;;;7347672;19;108357;-88
2022/11/06 00:33:40;;;;;;;;;;;11.20;99.90;;;;;;7345583;19;108477;-88
2022/11/06 00:36:09;;;;;;;;;;;11.20;99.90;;;;;;7346418;19;110475;-88
2022/11/06 00:38:36;;;;;;;;;;;11.20;99.90;;;;;;7346951;19;109454;-89
2022/11/06 00:41:07;;;;;;;;;;;11.20;99.90;;;;;;7348340;19;109237;-89
2022/11/06 00:43:34;;;;;;;;;;;11.20;99.90;;;;;;7344415;19;110228;-88
2022/11/06 00:46:02;;;;;;;;;;;11.30;99.90;;;;;;7346060;19;108474;-89
2022/11/06 00:48:29;;;;;;;;;;;11.20;99.90;;;;;;7350455;19;109215;-87
2022/11/06 00:51:05;;;;;;;;;;;11.30;99.90;;;;;;7346618;19;109599;-88
2022/11/06 00:53:33;;;;;;;;;;;11.30;99.90;;;;;;7345693;19;110482;-89
2022/11/06 00:56:18;;;;;;;;;;;11.30;99.90;;;;;;7345594;19;110862;-90
2022/11/06 00:58:46;;;;;;;;;;;11.30;99.90;;;;;;7346740;19;108765;-88
2022/11/06 01:01:18;;;;;;;;;;;11.40;99.90;;;;;;7346131;19;109132;-88
2022/11/06 01:03:46;;;;;;;;;;;11.40;99.90;;;;;;7345514;19;111492;-89
2022/11/06 01:06:18;;;;;;;;;;;11.40;99.90;;;;;;7343800;19;108365;-89
2022/11/06 01:08:45;;;;;;;;;;;11.40;99.90;;;;;;7347244;19;109300;-88
2022/11/06 01:11:14;;;;;;;;;;;11.40;99.90;;;;;;7351807;19;112940;-89
2022/11/06 01:13:42;;;;;;;;;;;11.40;99.90;;;;;;7346510;19;109281;-89
2022/11/06 01:16:10;;;;;;;;;;;11.40;99.90;;;;;;7345760;19;111346;-88
2022/11/06 01:18:37;;;;;;;;;;;11.40;99.90;;;;;;7342135;19;108897;-88
2022/11/06 01:21:04;;;;;;;;;;;11.50;99.90;;;;;;7345587;19;108693;-88
2022/11/06 01:23:31;;;;;;;;;;;11.60;99.90;;;;;;7343993;19;109892;-89
2022/11/06 01:25:59;;;;;;;;;;;11.60;99.90;;;;;;7346475;19;108510;-88
2022/11/06 01:28:27;;;;;;;;;;;11.60;99.90;;;;;;7346036;19;111794;-88
2022/11/06 01:30:54;;;;;;;;;;;11.60;99.90;;;;;;7346269;19;109517;-89
2022/11/06 01:33:21;;;;;;;;;;;11.60;99.90;;;;;;7346739;19;109264;-87
2022/11/06 01:35:49;;;;;;;;;;;11.60;99.90;;;;;;7344515;19;110668;-88
2022/11/06 01:38:16;;;;;;;;;;;11.60;99.90;;;;;;7342543;19;108928;-88
2022/11/06 01:40:43;;;;;;;;;;;11.70;99.90;;;;;;7343552;19;109454;-89
2022/11/06 01:43:12;;;;;;;;;;;11.70;99.90;;;;;;7344514;19;109935;-88
2022/11/06 01:45:40;;;;;;;;;;;11.70;99.90;;;;;;7343238;19;108488;-89
2022/11/06 01:48:07;;;;;;;;;;;11.70;99.90;;;;;;7342992;19;109652;-89
2022/11/06 01:50:34;;;;;;;;;;;11.70;99.90;;;;;;7341358;19;110301;-88
2022/11/06 01:53:01;;;;;;;;;;;11.70;99.90;;;;;;7348135;19;108404;-89
2022/11/06 01:55:31;;;;;;;;;;;11.70;99.90;;;;;;7342337;19;111167;-87
2022/11/06 01:57:59;;;;;;;;;;;11.70;99.90;;;;;;7342458;19;108549;-88
2022/11/06 02:00:26;;;;;;;;;;;11.80;99.90;;;;;;7342143;19;109179;-88
2022/11/06 02:02:53;;;;;;;;;;;11.80;99.90;;;;;;7343344;19;109538;-89
2022/11/06 02:05:20;;;;;;;;;;;11.80;99.90;;;;;;7339718;19;108397;-88
2022/11/06 02:07:47;;;;;;;;;;;11.90;99.90;;;;;;7342551;19;111078;-89
2022/11/06 02:10:18;;;;;;;;;;;11.80;99.90;;;;;;7340514;19;128293;-88
2022/11/06 02:12:56;;;;;;;;;;;11.90;99.90;;;;;;7343154;19;108826;-89
2022/11/06 02:15:43;;;;;;;;;;;11.90;99.90;;;;;;7348144;19;108530;-87
2022/11/06 02:18:16;;;;;;;;;;;11.90;99.90;;;;;;7340095;19;108846;-88
2022/11/06 02:20:52;;;;;;;;;;;11.90;99.90;;;;;;7343611;19;112236;-88
2022/11/06 02:23:19;;;;;;;;;;;11.90;99.90;;;;;;7341949;19;109525;-88
2022/11/06 02:25:53;;;;;;;;;;;11.80;99.90;;;;;;7343047;19;108641;-87
2022/11/06 02:28:40;;;;;;;;;;;11.80;99.90;;;;;;7343166;19;109099;-88
2022/11/06 02:31:10;;;;;;;;;;;11.80;99.90;;;;;;7341961;19;110233;-88
2022/11/06 02:33:42;;;;;;;;;;;11.80;99.90;;;;;;7341821;19;108346;-88
2022/11/06 02:36:12;;;;;;;;;;;11.80;99.90;;;;;;7341615;19;108990;-88
2022/11/06 02:38:41;;;;;;;;;;;11.80;99.90;;;;;;7347394;19;112899;-89
2022/11/06 02:41:10;;;;;;;;;;;11.80;99.90;;;;;;7341936;19;109464;-88
2022/11/06 02:43:39;;;;;;;;;;;11.80;99.90;;;;;;7342263;19;110300;-89
2022/11/06 02:46:12;;;;;;;;;;;11.80;99.90;;;;;;7343039;19;108568;-88
2022/11/06 02:48:47;;;;;;;;;;;11.90;99.90;;;;;;7342937;19;111162;-88
2022/11/06 02:51:16;;;;;;;;;;;11.90;99.90;;;;;;7342742;19;110241;-88
2022/11/06 02:53:44;;;;;;;;;;;11.90;99.90;;;;;;7341993;19;109357;-89
2022/11/06 02:56:14;;;;;;;;;;;11.90;99.90;;;;;;7340718;19;108547;-89
2022/11/06 02:58:45;;;;;;;;;;;11.90;99.90;;;;;;7342308;19;109405;-89
2022/11/06 03:01:19;;;;;;;;;;;11.90;99.90;;;;;;7345755;19;108578;-88
2022/11/06 03:03:50;;;;;;;;;;;11.90;99.90;;;;;;7340309;19;113025;-89
2022/11/06 03:06:22;;;;;;;;;;;11.90;99.90;;;;;;7341500;19;108754;-89
2022/11/06 03:09:08;;;;;;;;;;;11.90;99.90;;;;;;7341195;19;108656;-88
2022/11/06 03:11:37;;;;;;;;;;;11.90;99.90;;;;;;7340278;19;108940;-89
2022/11/06 03:14:23;;;;;;;;;;;11.80;99.90;;;;;;7341931;19;110082;-89
2022/11/06 03:17:08;;;;;;;;;;;11.80;99.90;;;;;;7344580;19;109539;-89
2022/11/06 03:19:43;;;;;;;;;;;11.80;99.90;;;;;;7348162;19;110297;-89
2022/11/06 03:22:13;;;;;;;;;;;11.80;99.90;;;;;;7350099;19;108499;-88
2022/11/06 03:24:46;;;;;;;;;;;11.70;99.90;;;;;;7354923;19;109231;-88
2022/11/06 03:27:18;;;;;;;;;;;11.70;99.90;;;;;;7348855;19;108408;-88
2022/11/06 03:29:47;;;;;;;;;;;11.70;99.90;;;;;;7350005;19;109559;-87
2022/11/06 03:32:23;;;;;;;;;;;11.60;99.90;;;;;;7346802;19;110081;-88
2022/11/06 03:35:19;;;;;;;;;;;11.60;99.90;;;;;;7348026;19;108969;-88
2022/11/06 03:38:02;;;;;;;;;;;11.70;99.90;;;;;;7347824;19;112303;-88
2022/11/06 03:40:31;;;;;;;;;;;11.70;99.90;;;;;;7345900;19;110241;-88
2022/11/06 03:43:01;;;;;;;;;;;11.70;99.90;;;;;;7348005;19;108487;-89
2022/11/06 03:45:29;;;;;;;;;;;11.60;99.90;;;;;;7345759;19;111820;-89
2022/11/06 03:48:07;;;;;;;;;;;11.60;99.90;;;;;;7355762;19;110616;-88
2022/11/06 03:50:36;;;;;;;;;;;11.60;99.90;;;;;;7348830;19;111892;-88
2022/11/06 03:53:21;;;;;;;;;;;11.60;99.90;;;;;;7348510;19;110759;-89
2022/11/06 03:55:52;;;;;;;;;;;11.60;99.90;;;;;;7349220;19;108509;-88
2022/11/06 03:58:24;;;;;;;;;;;11.60;99.90;;;;;;7349207;19;109440;-88
2022/11/06 04:00:53;;;;;;;;;;;11.60;99.90;;;;;;7349216;19;108835;-89
2022/11/06 04:03:29;;;;;;;;;;;11.60;99.90;;;;;;7350419;19;108364;-88
2022/11/06 04:06:03;;;;;;;;;;;11.60;99.90;;;;;;7348047;19;109302;-88
2022/11/06 04:14:06;;;;;;;;;;;11.60;99.90;;;;;;7348975;19;110007;-89
2022/11/06 04:16:37;;;;;;;;;;;11.50;99.90;;;;;;7352189;19;108341;-89
2022/11/06 04:19:05;;;;;;;;;;;11.50;99.90;;;;;;7351053;19;109150;-88
2022/11/06 04:21:41;;;;;;;;;;;11.50;99.90;;;;;;7351632;19;110603;-88
2022/11/06 04:27:06;;;;;;;;;;;11.50;99.90;;;;;;7368556;19;109167;-88
2022/11/06 04:29:51;;;;;;;;;;;11.40;99.90;;;;;;7373923;19;110792;-89
2022/11/06 04:32:18;;;;;;;;;;;11.40;99.90;;;;;;7379154;19;108276;-88
2022/11/06 04:34:49;;;;;;;;;;;11.40;99.90;;;;;;7376789;19;108228;-89
2022/11/06 04:37:15;;;;;;;;;;;11.40;99.90;;;;;;7373751;19;108340;-88
2022/11/06 04:39:45;;;;;;;;;;;11.40;99.90;;;;;;7377136;19;111416;-88
2022/11/06 04:42:12;;;;;;;;;;;11.30;99.90;;;;;;7374306;19;109771;-88
2022/11/06 04:44:48;;;;;;;;;;;11.30;99.90;;;;;;7372600;19;108071;-88
2022/11/06 04:47:19;;;;;;;;;;;11.30;99.90;;;;;;7374281;19;109182;-90
2022/11/06 04:49:47;;;;;;;;;;;11.30;99.90;;;;;;7374170;19;109084;-88
2022/11/06 04:52:16;;;;;;;;;;;11.20;99.90;;;;;;7374796;19;107778;-88
2022/11/06 04:54:45;;;;;;;;;;;11.20;99.90;;;;;;7378619;19;107975;-88
2022/11/06 04:57:12;;;;;;;;;;;11.10;99.90;;;;;;7375211;19;108191;-89
2022/11/06 04:59:39;;;;;;;;;;;11.10;99.90;;;;;;7374675;19;108571;-90
2022/11/06 05:02:06;;;;;;;;;;;11.10;99.90;;;;;;7372153;19;110661;-89
2022/11/06 05:04:33;;;;;;;;;;;11.10;99.90;;;;;;7371705;19;107930;-89
2022/11/06 05:07:00;;;;;;;;;;;11.10;99.90;;;;;;7373372;19;108413;-89
2022/11/06 05:09:27;;;;;;;;;;;11.10;99.90;;;;;;7354667;19;111762;-89
2022/11/06 05:11:54;;;;;;;;;;;11.10;99.90;;;;;;7343744;19;108480;-88
2022/11/06 05:14:21;;;;;;;;;;;11.10;99.90;;;;;;7348386;19;110633;-90
2022/11/06 05:16:48;;;;;;;;;;;11.10;99.90;;;;;;7357091;19;110532;-87
2022/11/06 05:19:14;;;;;;;;;;;11.00;99.90;;;;;;7347724;19;109053;-88
2022/11/06 05:24:27;;;;;;;;;;;11.00;99.90;;;;;;7343181;19;108743;-89
2022/11/06 05:26:54;;;;;;;;;;;11.10;99.90;;;;;;7344218;19;109053;-87
2022/11/06 05:29:25;;;;;;;;;;;11.10;99.90;;;;;;7342395;19;109500;-88
2022/11/06 05:31:52;;;;;;;;;;;11.10;99.90;;;;;;7343992;19;108472;-88
2022/11/06 05:34:20;;;;;;;;;;;11.10;99.90;;;;;;7341231;19;109876;-88
2022/11/06 05:36:46;;;;;;;;;;;11.10;99.90;;;;;;7342156;19;110762;-88
2022/11/06 05:39:13;;;;;;;;;;;11.10;99.90;;;;;;7349094;19;109158;-88
2022/11/06 05:41:40;;;;;;;;;;;11.10;99.90;;;;;;7342972;19;110894;-88
2022/11/06 05:44:07;;;;;;;;;;;11.10;99.90;;;;;;7343654;19;108745;-89
2022/11/06 05:46:34;;;;;;;;;;;11.10;99.90;;;;;;7346386;19;109346;-89
2022/11/06 05:49:14;;;;;;;;;;;11.00;99.90;;;;;;7343248;19;110492;-88
2022/11/06 05:51:41;;;;;;;;;;;11.00;99.90;;;;;;7342447;19;108552;-88
2022/11/06 05:54:08;;;;;;;;;;;11.00;99.90;;;;;;7341552;19;109519;-88
2022/11/06 05:56:35;;;;;;;;;;;11.00;99.90;;;;;;7339731;19;113039;-88
2022/11/06 05:59:02;;;;;;;;;;;11.00;99.90;;;;;;7342775;19;108535;-88
2022/11/06 06:01:29;;;;;;;;;;;11.10;99.90;;;;;;7348548;19;109912;-88
2022/11/06 06:03:56;;;;;;;;;;;11.10;99.90;;;;;;7343639;19;108869;-88
2022/11/06 06:06:23;;;;;;;;;;;11.00;99.90;;;;;;7340982;19;109552;-88
2022/11/06 06:08:50;;;;;;;;;;;11.10;99.90;;;;;;7341068;19;110239;-87
2022/11/06 06:11:16;;;;;;;;;;;11.10;99.90;;;;;;7340161;19;108528;-89
2022/11/06 06:13:43;;;;;;;;;;;11.10;99.90;;;;;;7343587;19;108952;-88
2022/11/06 06:16:10;;;;;;;;;;;11.20;99.90;;;;;;7341189;19;110338;-88
2022/11/06 06:18:37;;;;;;;;;;;11.20;99.90;;;;;;7341705;19;108955;-89
2022/11/06 06:21:04;;;;;;;;;;;11.20;99.90;;;;;;7346750;19;109062;-88
2022/11/06 06:23:31;;;;;;;;;;;11.30;99.90;;;;;;7341194;19;109776;-87
2022/11/06 06:25:58;;;;;;;;;;;11.30;99.90;;;;;;7342370;19;108862;-88
2022/11/06 06:28:25;;;;;;;;;;;11.30;99.90;;;;;;7339997;19;110429;-87
2022/11/06 06:30:52;;;;;;;;;;;11.40;99.90;;;;;;7342330;19;108355;-87
2022/11/06 06:33:26;;;;;;;;;;;11.40;99.90;;;;;;7339986;19;111093;-91
2022/11/06 06:35:53;;;;;;;;;;;11.40;99.90;;;;;;7342504;19;110110;-87
2022/11/06 06:38:20;;;;;;;;;;;11.40;99.90;;;;;;7341550;19;108794;-87
2022/11/06 06:40:47;;;;;;;;;;;11.40;99.90;;;;;;7339210;19;109334;-86
2022/11/06 06:43:14;;;;;;;;;;;11.50;99.90;;;;;;7342556;19;109747;-86
2022/11/06 06:45:41;;;;;;;;;;;11.50;99.90;;;;;;7340214;19;109209;-87
2022/11/06 06:48:08;;;;;;;;;;;11.60;99.90;;;;;;7338508;19;110436;-86
2022/11/06 06:50:35;;;;;;;;;;;11.60;99.90;;;;;;7334839;19;108522;-86
2022/11/06 06:53:02;;;;;;;;;;;11.60;99.90;;;;;;7340407;19;110079;-86
2022/11/06 06:55:29;;;;;;;;;;;11.60;99.90;;;;;;7338294;19;110487;-86
2022/11/06 06:57:57;;;;;;;;;;;11.60;99.90;;;;;;7339686;19;108937;-86
2022/11/06 07:00:24;;;;;;;;;;;11.60;99.90;;;;;;7341391;19;108651;-86
2022/11/06 07:02:51;;;;;;;;;;;11.60;99.90;;;;;;7338014;19;113068;-87
2022/11/06 07:05:18;;;;;;;;;;;11.60;99.90;;;;;;7342931;19;109454;-86
2022/11/06 07:07:45;;;;;;;;;;;11.70;99.90;;;;;;7338711;19;110394;-84
2022/11/06 07:10:12;;;;;;;;;;;11.70;99.90;;;;;;7338983;19;108666;-86
2022/11/06 07:12:39;;;;;;;;;;;11.70;99.90;;;;;;7340204;19;109032;-86
2022/11/06 07:15:06;;;;;;;;;;;11.70;99.90;;;;;;7336209;19;113304;-86
2022/11/06 07:17:33;;;;;;;;;;;11.80;99.90;;;;;;7339686;19;108683;-85
2022/11/06 07:20:00;;;;;;;;;;;11.70;99.90;;;;;;7338512;19;109620;-85
2022/11/06 07:22:27;;;;;;;;;;;11.70;99.90;;;;;;7337371;19;109522;-86
2022/11/06 07:25:03;;;;;;;;;;;11.80;99.90;;;;;;7339257;19;108618;-84
2022/11/06 07:27:29;;;;;;;;;;;11.70;99.90;;;;;;7344439;19;110850;-86
2022/11/06 07:29:59;;;;;;;;;;;11.70;99.90;;;;;;7340338;19;108764;-86
2022/11/06 07:32:26;;;;;;;;;;;11.80;99.90;;;;;;7335038;19;109103;-86
2022/11/06 07:34:53;;;;;;;;;;;11.80;99.90;;;;;;7336141;19;110068;-86
2022/11/06 07:37:20;;;;;;;;;;;11.80;99.90;;;;;;7337909;19;108696;-86
2022/11/06 07:39:47;;;;;;;;;;;11.90;99.90;;;;;;7338832;19;109281;-86
2022/11/06 07:42:13;;;;;;;;;;;11.90;99.90;;;;;;7338436;19;110576;-87
2022/11/06 07:44:40;;;;;;;;;;;12.00;99.90;;;;;;7338713;19;108707;-86
2022/11/06 07:47:07;;;;;;;;;;;12.00;99.90;;;;;;7340342;19;109462;-86
2022/11/06 07:49:34;;;;;;;;;;;12.10;99.90;;;;;;7341350;19;110170;-87
2022/11/06 07:52:01;;;;;;;;;;;12.00;99.90;;;;;;7339504;19;109091;-87
2022/11/06 07:54:28;;;;;;;;;;;12.10;99.90;;;;;;7337413;19;110714;-87
2022/11/06 07:56:55;;;;;;;;;;;12.10;99.90;;;;;;7337517;19;108404;-87
2022/11/06 07:59:22;;;;;;;;;;;12.10;99.90;;;;;;7336398;19;109142;-87
2022/11/06 08:01:49;;;;;;;;;;;12.10;99.90;;;;;;7334456;19;112725;-87
2022/11/06 08:04:16;;;;;;;;;;;12.10;99.90;;;;;;7341160;19;108825;-86
2022/11/06 08:06:43;;;;;;;;;;;12.10;99.90;;;;;;7344681;19;109575;-87
2022/11/06 08:09:10;;;;;;;;;;;12.10;99.90;;;;;;7344456;19;110279;-87
2022/11/06 08:11:37;;;;;;;;;;;12.20;99.90;;;;;;7347309;19;109082;-87
2022/11/06 08:14:03;;;;;;;;;;;12.20;99.90;;;;;;7341957;19;109895;-86
2022/11/06 08:16:30;;;;;;;;;;;12.20;99.90;;;;;;7341626;19;108543;-86
2022/11/06 08:18:57;;;;;;;;;;;12.20;99.90;;;;;;7342934;19;109279;-86
2022/11/06 08:21:24;;;;;;;;;;;12.30;99.90;;;;;;7339814;19;110977;-86
2022/11/06 08:23:51;;;;;;;;;;;12.30;99.90;;;;;;7343333;19;109209;-86
2022/11/06 08:26:18;;;;;;;;;;;12.30;99.90;;;;;;7341475;19;111632;-86
2022/11/06 08:28:45;;;;;;;;;;;12.40;99.90;;;;;;7344666;19;109688;-86
2022/11/06 08:31:12;;;;;;;;;;;12.50;99.90;;;;;;7348308;19;108870;-87
2022/11/06 08:33:39;;;;;;;;;;;12.50;99.90;;;;;;7342670;19;109270;-87
2022/11/06 08:36:06;;;;;;;;;;;12.50;99.90;;;;;;7343569;19;109188;-87
2022/11/06 08:38:34;;;;;;;;;;;12.50;99.90;;;;;;7342372;19;109311;-87
2022/11/06 08:41:05;;;;;;;;;;;12.50;99.90;;;;;;7343432;19;110697;-86
2022/11/06 08:43:32;;;;;;;;;;;12.60;99.90;;;;;;7341239;19;108540;-85
2022/11/06 08:46:00;;;;;;;;;;;12.60;99.90;;;;;;7342948;19;109287;-86
2022/11/06 08:48:27;;;;;;;;;;;12.60;99.90;;;;;;7341192;19;110014;-86
2022/11/06 08:50:54;;;;;;;;;;;12.70;99.90;;;;;;7342232;19;108429;-85
2022/11/06 08:53:21;;;;;;;;;;;12.80;99.90;;;;;;7347189;19;109111;-85
2022/11/06 08:55:48;;;;;;;;;;;12.90;99.90;;;;;;7342538;19;109117;-86
2022/11/06 08:58:15;;;;;;;;;;;13.00;99.90;;;;;;7340586;19;109505;-86
2022/11/06 09:00:42;;;;;;;;;;;13.10;99.90;;;;;;7341006;19;110529;-85
2022/11/06 09:03:11;;;;;;;;;;;13.20;99.90;;;;;;7343025;19;108773;-85
2022/11/06 09:05:40;;;;;;;;;;;13.30;99.90;;;;;;7340139;19;109244;-86
2022/11/06 09:08:07;;;;;;;;;;;13.30;99.90;;;;;;7339642;19;109297;-85
2022/11/06 09:10:36;;;;;;;;;;;13.30;99.90;;;;;;7341799;19;109556;-86
2022/11/06 09:13:03;;;;;;;;;;;13.20;99.90;;;;;;7342494;19;109411;-87
2022/11/06 09:15:30;;;;;;;;;;;13.20;99.90;;;;;;7343946;19;112748;-86
2022/11/06 09:17:57;;;;;;;;;;;13.20;99.90;;;;;;7344131;19;109295;-87
2022/11/06 09:20:24;;;;;;;;;;;13.30;99.90;;;;;;7340736;19;109691;-85
2022/11/06 09:22:51;;;;;;;;;;;13.30;99.90;;;;;;7341191;19;108417;-86
2022/11/06 09:25:18;;;;;;;;;;;13.50;99.90;;;;;;7341503;19;109447;-87
2022/11/06 09:27:47;;;;;;;;;;;13.50;99.90;;;;;;7341091;19;113774;-87
2022/11/06 09:30:15;;;;;;;;;;;13.50;99.90;;;;;;7343225;19;108860;-86
2022/11/06 09:33:00;;;;;;;;;;;13.50;99.90;;;;;;7343805;19;109163;-85
2022/11/06 09:35:28;;;;;;;;;;;13.40;99.90;;;;;;7339809;19;109602;-87
2022/11/06 09:38:05;;;;;;;;;;;13.40;99.90;;;;;;7348436;19;108843;-87
2022/11/06 09:40:37;;;;;;;;;;;13.30;99.90;;;;;;7339856;19;110903;-87
2022/11/06 09:43:22;;;;;;;;;;;13.40;99.90;;;;;;7342513;19;108631;-87
2022/11/06 09:46:32;;;;;;;;;;;13.40;99.90;;;;;;7342158;19;111405;-85
2022/11/06 09:49:18;;;;;;;;;;;13.30;99.90;;;;;;7342753;19;110826;-85
2022/11/06 09:51:49;;;;;;;;;;;13.30;99.90;;;;;;7342996;19;108695;-86
2022/11/06 09:54:21;;;;;;;;;;;13.40;99.90;;;;;;7339702;19;108819;-86
2022/11/06 09:56:49;;;;;;;;;;;13.30;99.90;;;;;;7339997;19;110268;-86
2022/11/06 09:59:17;;;;;;;;;;;13.40;99.90;;;;;;7341150;19;108531;-86
2022/11/06 10:01:46;;;;;;;;;;;13.40;99.90;;;;;;7347756;19;111632;-86
2022/11/06 10:04:21;;;;;;;;;;;13.40;99.90;;;;;;7342469;19;108566;-87
2022/11/06 10:06:48;;;;;;;;;;;13.40;99.90;;;;;;7341726;19;108722;-85
2022/11/06 10:09:16;;;;;;;;;;;13.50;99.90;;;;;;7337934;19;110102;-86
2022/11/06 10:11:49;;;;;;;;;;;13.50;99.90;;;;;;7341423;19;108649;-86
2022/11/06 10:14:16;;;;;;;;;;;13.50;99.90;;;;;;7338602;19;109438;-86
2022/11/06 10:16:43;;;;;;;;;;;13.50;99.90;;;;;;7341268;19;110722;-86
2022/11/06 10:19:12;;;;;;;;;;;13.50;99.90;;;;;;7339516;19;109361;-86
2022/11/06 10:21:49;;;;;;;;;;;13.60;99.90;;;;;;7342821;19;109659;-87
2022/11/06 10:24:26;;;;;;;;;;;13.60;99.90;;;;;;7338135;19;108694;-86
2022/11/06 10:26:54;;;;;;;;;;;13.60;99.90;;;;;;7338543;19;111761;-86
2022/11/06 10:29:40;;;;;;;;;;;13.70;99.90;;;;;;7339935;19;109460;-87
2022/11/06 10:32:10;;;;;;;;;;;13.70;99.90;;;;;;7339304;19;108912;-86
2022/11/06 10:34:40;;;;;;;;;;;13.70;99.90;;;;;;7337838;19;109388;-86
2022/11/06 10:37:12;;;;;;;;;;;13.70;99.90;;;;;;7339539;19;110045;-88
2022/11/06 10:39:40;;;;;;;;;;;13.80;99.90;;;;;;7339997;19;108999;-86
2022/11/06 10:42:15;;;;;;;;;;;13.80;99.90;;;;;;7339047;19;109105;-86
2022/11/06 10:44:47;;;;;;;;;;;13.90;99.90;;;;;;7343212;19;110354;-86
2022/11/06 10:47:17;;;;;;;;;;;13.90;99.90;;;;;;7342613;19;109222;-87
2022/11/06 10:49:48;;;;;;;;;;;14.00;99.90;;;;;;7339159;19;110001;-86
2022/11/06 10:52:15;;;;;;;;;;;14.00;99.90;;;;;;7342665;19;108685;-90
2022/11/06 10:54:51;;;;;;;;;;;14.00;99.90;;;;;;7339579;19;109375;-86
2022/11/06 10:57:33;;;;;;;;;;;14.10;99.90;;;;;;7338317;19;112838;-87
2022/11/06 11:00:02;;;;;;;;;;;14.10;99.90;;;;;;7341325;19;108444;-84
2022/11/06 11:02:29;;;;;;;;;;;14.10;99.90;;;;;;7340287;19;112525;-84
2022/11/06 11:04:56;;;;;;;;;;;14.10;99.90;;;;;;7339381;19;109173;-86
2022/11/06 11:07:27;;;;;;;;;;;14.20;99.90;;;;;;7347163;19;108614;-87
2022/11/06 11:09:54;;;;;;;;;;;14.30;99.90;;;;;;7339693;19;110810;-85
2022/11/06 11:12:31;;;;;;;;;;;14.30;99.90;;;;;;7339201;19;108970;-85
2022/11/06 11:15:24;;;;;;;;;;;14.30;99.90;;;;;;7345254;19;108831;-85
2022/11/06 11:18:07;;;;;;;;;;;14.30;99.90;;;;;;7343338;19;110181;-85
2022/11/06 11:20:35;;;;;;;;;;;14.30;99.90;;;;;;7345204;19;108882;-85
2022/11/06 11:23:05;;;;;;;;;;;14.20;99.90;;;;;;7347951;19;109107;-85
2022/11/06 11:25:32;;;;;;;;;;;14.10;99.90;;;;;;7355041;19;110292;-85
2022/11/06 11:27:59;;;;;;;;;;;14.20;99.90;;;;;;7369026;19;108089;-84
2022/11/06 11:30:30;;;;;;;;;;;14.20;99.90;;;;;;7374127;19;108551;-85
2022/11/06 11:32:57;;;;;;;;;;;14.20;99.90;;;;;;7370463;19;108577;-85
2022/11/06 11:35:29;;;;;;;;;;;14.20;99.90;;;;;;7370643;19;110112;-85
2022/11/06 11:38:04;;;;;;;;;;;14.20;99.90;;;;;;7374516;19;108523;-85
2022/11/06 11:40:36;;;;;;;;;;;14.20;99.90;;;;;;7374309;19;108221;-85
2022/11/06 11:43:23;;;;;;;;;;;14.30;99.90;;;;;;7377057;19;108394;-85
2022/11/06 11:46:08;;;;;;;;;;;14.20;99.90;;;;;;7376926;19;109470;-86
2022/11/06 11:48:46;;;;;;;;;;;14.20;99.90;;;;;;7374643;19;109181;-85
2022/11/06 11:51:18;;;;;;;;;;;14.30;99.90;;;;;;7374012;19;108393;-85
2022/11/06 11:53:46;;;;;;;;;;;14.30;99.90;;;;;;7381093;19;109507;-84
2022/11/06 11:56:14;;;;;;;;;;;14.30;99.90;;;;;;7375311;19;108195;-85
2022/11/06 11:58:47;;;;;;;;;;;14.30;99.90;;;;;;7375989;19;110190;-85
2022/11/06 12:01:14;;;;;;;;;;;14.30;99.90;;;;;;7373464;19;108090;-85
2022/11/06 12:03:44;;;;;;;;;;;14.20;99.90;;;;;;7374575;19;109933;-85
2022/11/06 12:06:13;;;;;;;;;;;14.20;99.90;;;;;;7371790;19;109504;-86
2022/11/06 12:08:43;;;;;;;;;;;14.10;99.90;;;;;;7375420;19;109020;-85
2022/11/06 12:11:14;;;;;;;;;;;14.10;99.90;;;;;;7375703;19;108607;-85
2022/11/06 12:13:40;;;;;;;;;;;14.10;99.90;;;;;;7374586;19;110292;-85
2022/11/06 12:16:15;;;;;;;;;;;14.00;99.90;;;;;;7378152;19;108123;-85
2022/11/06 12:18:51;;;;;;;;;;;13.90;99.90;;;;;;7351435;19;108560;-84
2022/11/06 12:21:29;;;;;;;;;;;13.90;99.90;;;;;;7342313;19;108702;-86
2022/11/06 12:23:58;;;;;;;;;;;13.80;99.90;;;;;;7342346;19;111755;-86
2022/11/06 12:26:45;;;;;;;;;;;13.80;99.90;;;;;;7342536;19;112969;-86
2022/11/06 12:29:13;;;;;;;;;;;13.80;99.90;;;;;;7343786;19;108455;-86
2022/11/06 12:31:43;;;;;;;;;;;13.80;99.90;;;;;;7342285;19;111153;-85
2022/11/06 12:34:13;;;;;;;;;;;13.70;99.90;;;;;;7342240;19;110452;-85
2022/11/06 12:36:45;;;;;;;;;;;13.80;99.90;;;;;;7347120;19;108380;-85
2022/11/06 12:39:22;;;;;;;;;;;13.70;99.90;;;;;;7340412;19;110559;-86
2022/11/06 12:41:49;;;;;;;;;;;13.60;99.90;;;;;;7344106;19;108733;-86
2022/11/06 12:44:16;;;;;;;;;;;13.60;99.90;;;;;;7345092;19;109221;-85
2022/11/06 12:46:43;;;;;;;;;;;13.60;99.90;;;;;;7340758;19;110624;-86
2022/11/06 12:49:27;;;;;;;;;;;13.50;99.90;;;;;;7341465;19;109408;-86
2022/11/06 12:52:09;;;;;;;;;;;13.40;99.90;;;;;;7344482;19;111589;-86
2022/11/06 12:54:55;;;;;;;;;;;13.40;99.90;;;;;;7341147;19;110623;-86
2022/11/06 12:57:25;;;;;;;;;;;13.30;99.90;;;;;;7344206;19;109442;-87
2022/11/06 12:59:55;;;;;;;;;;;13.20;99.90;;;;;;7350191;19;111861;-86
2022/11/06 13:02:34;;;;;;;;;;;13.20;99.90;;;;;;7344701;19;108827;-87
2022/11/06 13:05:05;;;;;;;;;;;13.10;99.90;;;;;;7344302;19;110316;-88
2022/11/06 13:07:43;;;;;;;;;;;13.10;99.90;;;;;;7341264;19;109501;-87
2022/11/06 13:10:10;;;;;;;;;;;13.10;99.90;;;;;;7341804;19;108657;-87
2022/11/06 13:13:13;;;;;;;;;;;13.10;99.90;;;;;;7340799;19;110280;-87
2022/11/06 13:15:56;;;;;;;;;;;13.10;99.90;;;;;;7337705;19;113464;-87
2022/11/06 13:18:24;;;;;;;;;;;13.00;99.90;;;;;;7339588;19;108746;-86
2022/11/06 13:20:54;;;;;;;;;;;12.90;99.90;;;;;;7337704;19;109750;-86
2022/11/06 13:23:27;;;;;;;;;;;12.90;99.90;;;;;;7342138;19;110503;-87
2022/11/06 13:25:54;;;;;;;;;;;12.80;99.90;;;;;;7338310;19;108841;-87
2022/11/06 13:28:30;;;;;;;;;;;12.70;99.90;;;;;;7338978;19;111124;-87
2022/11/06 13:30:57;;;;;;;;;;;12.60;99.90;;;;;;7339088;19;109623;-86
2022/11/06 13:33:40;;;;;;;;;;;12.50;99.90;;;;;;7337676;19;112623;-87
2022/11/06 13:36:07;;;;;;;;;;;12.40;99.90;;;;;;7337702;19;110304;-86
2022/11/06 13:38:36;;;;;;;;;;;12.40;99.90;;;;;;7340037;19;108872;-86
2022/11/06 13:41:14;;;;;;;;;;;12.40;99.90;;;;;;7338936;19;109062;-86
2022/11/06 13:43:43;;;;;;;;;;;12.40;99.90;;;;;;7338019;19;110680;-86
2022/11/06 13:46:13;;;;;;;;;;;12.50;99.90;;;;;;7342972;19;109061;-86
2022/11/06 13:49:04;;;;;;;;;;;12.50;99.90;;;;;;7338434;19;110735;-88
2022/11/06 13:51:40;;;;;;;;;;;12.50;99.90;;;;;;7341863;19;108447;-86
2022/11/06 13:54:25;;;;;;;;;;;12.40;99.90;;;;;;7341294;19;109201;-87
2022/11/06 13:57:02;;;;;;;;;;;12.40;99.90;;;;;;7340342;19;110817;-86
2022/11/06 13:59:35;;;;;;;;;;;12.40;99.90;;;;;;7340050;19;108506;-86
2022/11/06 14:02:17;;;;;;;;;;;12.30;99.90;;;;;;7342744;19;110529;-86
2022/11/06 14:05:02;;;;;;;;;;;12.20;99.90;;;;;;7339143;19;109254;-87
2022/11/06 14:07:30;;;;;;;;;;;12.20;99.90;;;;;;7339379;19;111257;-86
2022/11/06 14:09:57;;;;;;;;;;;12.20;99.90;;;;;;7347456;19;109138;-86
2022/11/06 14:12:24;;;;;;;;;;;12.10;99.90;;;;;;7339040;19;108460;-86
2022/11/06 14:15:11;;;;;;;;;;;12.10;99.90;;;;;;7341064;19;112641;-86
2022/11/06 14:17:38;;;;;;;;;;;12.00;99.90;;;;;;7339927;19;112725;-86
2022/11/06 14:20:24;;;;;;;;;;;11.90;99.90;;;;;;7339559;19;110704;-86
2022/11/06 14:22:51;;;;;;;;;;;11.80;99.90;;;;;;7341366;19;111427;-87
2022/11/06 14:25:27;;;;;;;;;;;11.80;99.90;;;;;;7337149;19;111380;-86
2022/11/06 14:27:54;;;;;;;;;;;11.70;99.90;;;;;;7339361;19;110051;-85
2022/11/06 14:30:30;;;;;;;;;;;11.60;99.90;;;;;;7336946;19;110364;-86
2022/11/06 14:33:36;;;;;;;;;;;11.60;99.90;;;;;;7342854;19;112098;-86
2022/11/06 14:36:21;;;;;;;;;;;11.50;99.90;;;;;;7339356;19;109940;-85
2022/11/06 14:38:48;;;;;;;;;;;11.50;99.90;;;;;;7339114;19;110452;-85